Guapiles, Costa Rica
Current Conditions -  °F | °C
As of 6:00 PM on Friday 28 Nov 2014 (Local Time) from MRPV Reporting Station
Few Clouds Few Clouds  
Wind Chill: 70°   Ceiling: Unl
Heat Index: 70°   Visibility: 6mi
Dew Point: 61°   Wind: 16mph
Humidity: 73%   Direction: 80°E
Pressure: 29.94"   Gusts: NA
Location:  10.21°N, 83.79°W
Report Text: MRPV 290000Z 08014KT 9999 FEW035 21/16 A2994 NOSIG
Loading
Personal Weather Stations






























Interactive Weather Map New forecast layout! Learn more

10-Day Weather Forecast

Advertisements
Track Severe Weather on mobile